createdAt,value
2017-04-15T00:00:34.919Z,12.10
2017-04-15T00:01:33.385Z,12.10
2017-04-15T00:02:31.564Z,12.10
2017-04-15T00:03:29.641Z,12.10
2017-04-15T00:04:28.022Z,12.10
2017-04-15T00:05:26.168Z,12.20
2017-04-15T00:06:24.756Z,12.10
2017-04-15T00:07:22.831Z,12.00
2017-04-15T00:08:20.911Z,12.00
2017-04-15T00:09:19.028Z,11.90
2017-04-15T00:10:17.265Z,11.80
2017-04-15T00:11:15.423Z,11.90
2017-04-15T00:12:13.530Z,11.90
2017-04-15T00:13:12.591Z,11.90
2017-04-15T00:14:10.692Z,11.90
2017-04-15T00:15:08.564Z,11.90
2017-04-15T00:16:06.658Z,12.00
2017-04-15T00:17:06.187Z,12.00
2017-04-15T00:18:04.291Z,12.00
2017-04-15T00:19:02.417Z,12.00
2017-04-15T00:20:00.499Z,12.10
2017-04-15T00:20:58.752Z,12.10
2017-04-15T00:21:56.827Z,12.10
2017-04-15T00:22:54.559Z,12.10
2017-04-15T00:23:53.723Z,12.10
2017-04-15T00:24:51.824Z,12.10
2017-04-15T00:25:49.908Z,12.10
2017-04-15T00:26:48.232Z,12.20
2017-04-15T00:27:46.321Z,12.10
2017-04-15T00:28:44.468Z,12.10
2017-04-15T00:29:42.578Z,12.20
2017-04-15T00:30:40.731Z,12.20
2017-04-15T00:31:38.845Z,12.20
2017-04-15T00:32:36.932Z,12.20
2017-04-15T00:33:35.003Z,12.20
2017-04-15T00:34:33.663Z,12.20
2017-04-15T00:35:31.824Z,12.20
2017-04-15T00:36:29.916Z,12.20
2017-04-15T00:37:28.051Z,12.20
2017-04-15T00:38:26.127Z,12.10
2017-04-15T00:39:25.021Z,12.10
2017-04-15T00:40:23.172Z,12.10
2017-04-15T00:41:21.272Z,12.10
2017-04-15T00:42:19.692Z,12.10
2017-04-15T00:43:17.792Z,12.10
2017-04-15T00:44:15.927Z,12.10
2017-04-15T00:45:15.117Z,12.00
2017-04-15T00:46:14.355Z,12.00
2017-04-15T00:47:13.812Z,11.90
2017-04-15T00:48:12.837Z,11.90
2017-04-15T00:49:10.963Z,11.90
2017-04-15T00:50:09.127Z,11.90
2017-04-15T00:51:07.309Z,11.90
2017-04-15T00:52:05.408Z,11.90
2017-04-15T00:53:03.503Z,11.90
2017-04-15T00:54:01.631Z,11.80
2017-04-15T00:54:59.719Z,11.80
2017-04-15T00:55:57.843Z,11.80
2017-04-15T00:56:55.925Z,11.80
2017-04-15T00:57:53.961Z,11.80
2017-04-15T00:58:52.072Z,11.70
2017-04-15T00:59:50.291Z,11.70
2017-04-15T01:00:48.487Z,11.70
2017-04-15T01:01:47.247Z,11.70
2017-04-15T01:02:45.367Z,11.60
2017-04-15T01:03:43.440Z,11.60
2017-04-15T01:04:41.566Z,11.60
2017-04-15T01:05:40.894Z,11.50
2017-04-15T01:06:38.612Z,11.50
2017-04-15T01:07:36.655Z,11.50
2017-04-15T01:08:34.740Z,11.50
2017-04-15T01:09:32.861Z,11.60
2017-04-15T01:10:31.011Z,11.60
2017-04-15T01:11:29.263Z,11.60
2017-04-15T01:12:27.322Z,11.60
2017-04-15T01:13:25.480Z,11.60
2017-04-15T01:14:23.556Z,11.60
2017-04-15T01:15:21.736Z,11.60
2017-04-15T01:16:19.447Z,11.60
2017-04-15T01:17:17.583Z,11.60
2017-04-15T01:18:15.686Z,11.60
2017-04-15T01:19:14.567Z,11.60
2017-04-15T01:20:12.726Z,11.60
2017-04-15T01:21:10.807Z,11.50
2017-04-15T01:22:08.516Z,11.50
2017-04-15T01:23:06.346Z,11.50
2017-04-15T01:24:04.439Z,11.50
2017-04-15T01:25:02.604Z,11.50
2017-04-15T01:26:01.620Z,11.50
2017-04-15T01:27:00.143Z,11.50
2017-04-15T01:27:58.239Z,11.50
2017-04-15T01:28:56.995Z,11.50
2017-04-15T01:29:55.111Z,11.60
2017-04-15T01:30:53.220Z,11.60
2017-04-15T01:31:51.291Z,11.60
2017-04-15T01:32:49.363Z,11.60
2017-04-15T01:33:47.463Z,11.60
2017-04-15T01:34:46.411Z,11.70
2017-04-15T01:35:44.539Z,11.70
2017-04-15T01:36:42.627Z,11.70
2017-04-15T01:37:40.747Z,11.60
2017-04-15T01:38:39.373Z,11.60
2017-04-15T01:39:38.211Z,11.50
2017-04-15T01:40:36.384Z,11.50
2017-04-15T01:41:34.506Z,11.50
2017-04-15T01:42:32.600Z,11.50
2017-04-15T01:43:30.744Z,11.50
2017-04-15T01:44:28.839Z,11.50
2017-04-15T01:45:28.052Z,11.60
2017-04-15T01:46:26.116Z,11.60
2017-04-15T01:47:24.751Z,11.60
2017-04-15T01:48:22.891Z,11.70
2017-04-15T01:49:20.975Z,11.70
2017-04-15T01:50:19.157Z,11.70
2017-04-15T01:51:17.287Z,11.60
2017-04-15T01:52:15.358Z,11.50
2017-04-15T01:53:13.416Z,11.50
2017-04-15T01:54:11.927Z,11.50
2017-04-15T01:55:10.299Z,11.40
2017-04-15T01:56:08.411Z,11.30
2017-04-15T01:57:06.475Z,11.30
2017-04-15T01:58:04.608Z,11.20
2017-04-15T01:59:02.722Z,11.10
2017-04-15T02:00:00.783Z,11.20
2017-04-15T02:00:59.282Z,11.30
2017-04-15T02:01:58.146Z,11.20
2017-04-15T02:02:56.200Z,11.40
2017-04-15T02:03:54.235Z,11.40
2017-04-15T02:04:52.386Z,11.40
2017-04-15T02:05:50.151Z,11.40
2017-04-15T02:06:48.455Z,11.40
2017-04-15T02:07:46.506Z,11.40
2017-04-15T02:08:44.258Z,11.50
2017-04-15T02:09:42.371Z,11.40
2017-04-15T02:10:41.332Z,11.30
2017-04-15T02:11:39.471Z,11.30
2017-04-15T02:12:38.044Z,11.30
2017-04-15T02:13:36.124Z,11.20
2017-04-15T02:14:34.235Z,11.20
2017-04-15T02:15:32.326Z,11.20
2017-04-15T02:16:30.422Z,11.20
2017-04-15T02:17:28.466Z,11.20
2017-04-15T02:18:27.535Z,11.20
2017-04-15T02:19:25.245Z,11.20
2017-04-15T02:20:23.386Z,11.20
2017-04-15T02:21:21.495Z,11.20
2017-04-15T02:22:20.941Z,11.30
2017-04-15T02:23:19.039Z,11.40
2017-04-15T02:24:17.135Z,11.40
2017-04-15T02:25:15.255Z,11.40
2017-04-15T02:26:13.344Z,11.40
2017-04-15T02:27:11.411Z,11.40
2017-04-15T02:28:09.499Z,11.30
2017-04-15T02:29:07.196Z,11.30
2017-04-15T02:30:05.524Z,11.20
2017-04-15T02:31:03.663Z,11.20
2017-04-15T02:32:01.745Z,11.20
2017-04-15T02:32:59.491Z,11.30
2017-04-15T02:33:57.598Z,11.20
2017-04-15T02:34:55.662Z,11.20
2017-04-15T02:35:53.748Z,11.20
2017-04-15T02:36:51.815Z,11.10
2017-04-15T02:37:49.527Z,11.10
2017-04-15T02:38:47.611Z,11.20
2017-04-15T02:39:46.612Z,11.20
2017-04-15T02:40:44.328Z,11.30
2017-04-15T02:41:42.363Z,11.30
2017-04-15T02:42:40.444Z,11.30
2017-04-15T02:43:38.558Z,11.40
2017-04-15T02:44:36.678Z,11.30
2017-04-15T02:45:34.440Z,11.30
2017-04-15T02:46:32.543Z,11.40
2017-04-15T02:47:30.718Z,11.40
2017-04-15T02:48:28.479Z,11.40
2017-04-15T02:49:26.523Z,11.40
2017-04-15T02:50:24.671Z,11.40
2017-04-15T02:51:22.772Z,11.40
2017-04-15T02:52:20.830Z,11.40
2017-04-15T02:53:18.543Z,11.40
2017-04-15T02:54:16.643Z,11.30
2017-04-15T02:55:14.806Z,11.30
2017-04-15T02:56:13.535Z,11.30
2017-04-15T02:57:11.623Z,11.30
2017-04-15T02:58:09.728Z,11.40
2017-04-15T02:59:07.849Z,11.40
2017-04-15T03:00:06.447Z,11.30
2017-04-15T03:01:04.664Z,11.40
2017-04-15T03:02:02.808Z,11.40
2017-04-15T03:03:00.551Z,11.40
2017-04-15T03:03:58.362Z,11.40
2017-04-15T03:04:56.446Z,11.30
2017-04-15T03:05:55.017Z,11.30
2017-04-15T03:06:53.151Z,11.40
2017-04-15T03:07:51.214Z,11.30
2017-04-15T03:08:49.303Z,11.20
2017-04-15T03:09:48.405Z,11.20
2017-04-15T03:10:47.227Z,11.20
2017-04-15T03:11:45.382Z,11.10
2017-04-15T03:12:43.498Z,11.10
2017-04-15T03:13:41.660Z,11.10
2017-04-15T03:14:39.819Z,11.10
2017-04-15T03:15:37.934Z,11.10
2017-04-15T03:16:35.707Z,11.10
2017-04-15T03:17:33.796Z,11.00
2017-04-15T03:18:31.903Z,11.00
2017-04-15T03:19:29.972Z,11.00
2017-04-15T03:20:27.872Z,11.00
2017-04-15T03:21:25.627Z,11.00
2017-04-15T03:22:23.695Z,11.00
2017-04-15T03:23:21.816Z,11.10
2017-04-15T03:24:19.932Z,11.10
2017-04-15T03:25:18.096Z,11.20
2017-04-15T03:26:16.223Z,11.20
2017-04-15T03:27:14.331Z,11.10
2017-04-15T03:28:12.464Z,11.20
2017-04-15T03:29:10.699Z,11.20
2017-04-15T03:30:09.308Z,11.20
2017-04-15T03:31:08.391Z,11.10
2017-04-15T03:32:06.457Z,11.10
2017-04-15T03:33:04.539Z,11.00
2017-04-15T03:34:02.667Z,11.00
2017-04-15T03:35:00.988Z,11.00
2017-04-15T03:35:59.723Z,11.00
2017-04-15T03:36:57.803Z,11.00
2017-04-15T03:37:55.859Z,11.00
2017-04-15T03:38:53.947Z,11.00
2017-04-15T03:39:52.052Z,11.00
2017-04-15T03:40:50.279Z,11.00
2017-04-15T03:41:48.024Z,11.00
2017-04-15T03:42:46.122Z,11.00
2017-04-15T03:43:44.241Z,11.00
2017-04-15T03:44:42.332Z,11.00
2017-04-15T03:45:40.403Z,11.00
2017-04-15T03:46:38.547Z,11.00
2017-04-15T03:47:36.635Z,11.00
2017-04-15T03:48:34.696Z,11.00
2017-04-15T03:49:32.834Z,11.00
2017-04-15T03:50:31.016Z,11.00
2017-04-15T03:51:29.083Z,11.00
2017-04-15T03:52:27.215Z,11.00
2017-04-15T03:53:25.280Z,11.00
2017-04-15T03:54:23.027Z,11.00
2017-04-15T03:55:21.190Z,11.00
2017-04-15T03:56:20.304Z,11.00
2017-04-15T03:57:18.396Z,11.10
2017-04-15T03:58:16.511Z,11.10
2017-04-15T03:59:14.342Z,11.10
2017-04-15T04:00:12.968Z,11.20
2017-04-15T04:01:11.072Z,11.20
2017-04-15T04:02:09.984Z,11.20
2017-04-15T04:03:07.683Z,11.20
2017-04-15T04:04:05.839Z,11.30
2017-04-15T04:05:03.973Z,11.20
2017-04-15T04:06:02.676Z,11.10
2017-04-15T04:07:00.929Z,11.10
2017-04-15T04:07:59.015Z,11.00
2017-04-15T04:08:57.053Z,11.00
2017-04-15T04:09:55.186Z,10.90
2017-04-15T04:10:53.337Z,11.00
2017-04-15T04:11:51.419Z,11.10
2017-04-15T04:12:49.542Z,11.10
2017-04-15T04:13:47.662Z,11.20
2017-04-15T04:14:45.767Z,11.20
2017-04-15T04:15:44.887Z,11.20
2017-04-15T04:16:47.456Z,11.20
2017-04-15T04:17:45.811Z,11.20
2017-04-15T04:18:43.949Z,11.30
2017-04-15T04:19:42.047Z,11.30
2017-04-15T04:20:40.235Z,11.30
2017-04-15T04:21:38.743Z,11.30
2017-04-15T04:22:37.788Z,11.30
2017-04-15T04:23:35.948Z,11.30
2017-04-15T04:24:34.231Z,11.20
2017-04-15T04:25:32.952Z,11.20
2017-04-15T04:26:31.085Z,11.20
2017-04-15T04:27:30.763Z,11.20
2017-04-15T04:28:28.876Z,11.30
2017-04-15T04:29:27.055Z,11.30
2017-04-15T04:30:25.511Z,11.30
2017-04-15T04:31:23.559Z,11.30
2017-04-15T04:32:21.742Z,11.20
2017-04-15T04:33:19.898Z,11.10
2017-04-15T04:34:18.058Z,11.00
2017-04-15T04:35:16.214Z,11.00
2017-04-15T04:36:14.332Z,11.00
2017-04-15T04:37:12.439Z,11.00
2017-04-15T04:38:10.572Z,10.90
2017-04-15T04:39:08.693Z,10.90
2017-04-15T04:40:06.867Z,10.90
2017-04-15T04:41:04.640Z,10.90
2017-04-15T04:42:03.075Z,11.00
2017-04-15T04:43:01.259Z,10.90
2017-04-15T04:43:59.382Z,10.90
2017-04-15T04:44:57.492Z,11.00
2017-04-15T04:45:55.734Z,11.10
2017-04-15T04:46:53.819Z,11.20
2017-04-15T04:47:51.812Z,11.20
2017-04-15T04:48:49.891Z,11.20
2017-04-15T04:49:47.938Z,11.10
2017-04-15T04:50:46.155Z,11.10
2017-04-15T04:51:44.275Z,11.20
2017-04-15T04:52:42.371Z,11.30
2017-04-15T04:53:40.467Z,11.30
2017-04-15T04:54:38.531Z,11.20
2017-04-15T04:55:36.716Z,11.20
2017-04-15T04:56:34.831Z,11.20
2017-04-15T04:57:32.895Z,11.10
2017-04-15T04:58:30.599Z,11.10
2017-04-15T04:59:28.740Z,11.00
2017-04-15T05:00:27.362Z,11.10
2017-04-15T05:01:25.480Z,11.10
2017-04-15T05:02:23.624Z,11.10
2017-04-15T05:03:21.726Z,11.20
2017-04-15T05:04:20.124Z,11.20
2017-04-15T05:05:18.256Z,11.20
2017-04-15T05:06:16.323Z,11.20
2017-04-15T05:07:14.467Z,11.20
2017-04-15T05:08:12.548Z,11.10
2017-04-15T05:09:10.618Z,11.20
2017-04-15T05:10:09.659Z,11.20
2017-04-15T05:11:07.728Z,11.30
2017-04-15T05:12:05.827Z,11.30
2017-04-15T05:13:03.915Z,11.30
2017-04-15T05:14:02.441Z,11.30
2017-04-15T05:15:01.447Z,11.30
2017-04-15T05:15:59.883Z,11.20
2017-04-15T05:16:57.948Z,11.20
2017-04-15T05:17:56.053Z,11.20
2017-04-15T05:18:54.130Z,11.20
2017-04-15T05:19:52.219Z,11.30
2017-04-15T05:20:50.361Z,11.40
2017-04-15T05:21:48.539Z,11.40
2017-04-15T05:22:46.579Z,11.50
2017-04-15T05:23:44.679Z,11.50
2017-04-15T05:24:42.780Z,11.50
2017-04-15T05:25:41.934Z,11.60
2017-04-15T05:26:39.671Z,11.60
2017-04-15T05:27:37.731Z,11.70
2017-04-15T05:28:36.391Z,11.70
2017-04-15T05:29:34.510Z,11.70
2017-04-15T05:30:32.635Z,11.70
2017-04-15T05:31:30.771Z,11.70
2017-04-15T05:32:29.426Z,11.60
2017-04-15T05:33:27.513Z,11.70
2017-04-15T05:34:25.580Z,11.80
2017-04-15T05:35:23.731Z,11.90
2017-04-15T05:36:21.800Z,11.90
2017-04-15T05:37:20.419Z,12.00
2017-04-15T05:38:18.563Z,12.00
2017-04-15T05:39:16.939Z,12.00
2017-04-15T05:40:15.163Z,12.00
2017-04-15T05:41:13.344Z,12.00
2017-04-15T05:42:11.467Z,12.00
2017-04-15T05:43:09.554Z,12.10
2017-04-15T05:44:07.623Z,12.20
2017-04-15T05:45:06.035Z,12.30
2017-04-15T05:46:04.175Z,12.30
2017-04-15T05:47:02.339Z,12.30
2017-04-15T05:48:00.863Z,12.40
2017-04-15T05:48:59.933Z,12.50
2017-04-15T05:49:58.111Z,12.40
2017-04-15T05:50:56.996Z,12.50
2017-04-15T05:51:54.727Z,12.50
2017-04-15T05:52:52.883Z,12.50
2017-04-15T05:53:50.971Z,12.50
2017-04-15T05:54:48.707Z,12.50
2017-04-15T05:55:47.476Z,12.50
2017-04-15T05:56:45.245Z,12.50
2017-04-15T05:57:43.324Z,12.50
2017-04-15T05:58:41.446Z,12.50
2017-04-15T05:59:39.536Z,12.50
2017-04-15T06:00:38.287Z,12.50
2017-04-15T06:01:36.367Z,12.50
2017-04-15T06:02:35.148Z,12.50
2017-04-15T06:03:33.309Z,12.50
2017-04-15T06:04:31.506Z,12.50
2017-04-15T06:05:30.131Z,12.60
2017-04-15T06:06:28.861Z,12.60
2017-04-15T06:07:26.659Z,12.60
2017-04-15T06:08:24.774Z,12.70
2017-04-15T06:09:22.902Z,12.60
2017-04-15T06:10:21.212Z,12.60
2017-04-15T06:11:19.359Z,12.70
2017-04-15T06:12:17.483Z,12.70
2017-04-15T06:13:15.543Z,12.80
2017-04-15T06:14:13.690Z,12.90
2017-04-15T06:15:11.908Z,12.90
2017-04-15T06:16:10.053Z,12.90
2017-04-15T06:17:08.223Z,12.90
2017-04-15T06:18:06.300Z,13.00
2017-04-15T06:19:04.059Z,13.00
2017-04-15T06:20:02.247Z,13.10
2017-04-15T06:21:00.439Z,13.00
2017-04-15T06:21:58.516Z,13.00
2017-04-15T06:22:56.248Z,13.00
2017-04-15T06:23:55.695Z,12.90
2017-04-15T06:24:53.783Z,13.00
2017-04-15T06:25:52.598Z,12.90
2017-04-15T06:26:50.691Z,13.00
2017-04-15T06:27:48.764Z,13.00
2017-04-15T06:28:46.884Z,13.10
2017-04-15T06:29:45.075Z,13.10
2017-04-15T06:30:43.653Z,13.20
2017-04-15T06:31:42.234Z,13.20
2017-04-15T06:32:40.355Z,13.20
2017-04-15T06:33:38.435Z,13.30
2017-04-15T06:34:36.488Z,13.20
2017-04-15T06:35:34.312Z,13.20
2017-04-15T06:36:32.479Z,13.40
2017-04-15T06:37:30.618Z,13.40
2017-04-15T06:38:28.711Z,13.60
2017-04-15T06:39:26.875Z,13.60
2017-04-15T06:40:25.707Z,13.60
2017-04-15T06:41:23.870Z,13.60
2017-04-15T06:42:22.028Z,13.70
2017-04-15T06:43:20.203Z,13.60
2017-04-15T06:44:18.507Z,13.50
2017-04-15T06:45:17.087Z,13.60
2017-04-15T06:46:15.205Z,13.60
2017-04-15T06:47:13.356Z,13.50
2017-04-15T06:48:11.440Z,13.50
2017-04-15T06:49:09.891Z,13.50
2017-04-15T06:50:08.191Z,13.50
2017-04-15T06:51:06.324Z,13.60
2017-04-15T06:52:05.267Z,13.70
2017-04-15T06:53:03.403Z,13.80
2017-04-15T06:54:01.527Z,13.80
2017-04-15T06:54:59.669Z,14.00
2017-04-15T06:55:57.926Z,14.00
2017-04-15T06:56:56.564Z,14.00
2017-04-15T06:57:54.730Z,14.00
2017-04-15T06:58:52.853Z,14.00
2017-04-15T06:59:50.975Z,14.00
2017-04-15T07:00:49.584Z,14.00
2017-04-15T07:01:48.260Z,14.00
2017-04-15T07:02:46.920Z,14.00
2017-04-15T07:03:45.023Z,14.00
2017-04-15T07:04:43.239Z,14.00
2017-04-15T07:05:41.415Z,14.00
2017-04-15T07:06:39.538Z,14.00
2017-04-15T07:07:37.645Z,14.00
2017-04-15T07:08:35.797Z,14.00
2017-04-15T07:09:34.003Z,14.00
2017-04-15T07:10:32.268Z,14.10
2017-04-15T07:11:30.714Z,14.10
2017-04-15T07:12:28.852Z,14.00
2017-04-15T07:13:26.985Z,14.00
2017-04-15T07:14:25.050Z,14.10
2017-04-15T07:15:23.478Z,14.10
2017-04-15T07:16:22.432Z,14.20
2017-04-15T07:17:20.571Z,14.30
2017-04-15T07:18:18.862Z,14.50
2017-04-15T07:19:17.005Z,14.60
2017-04-15T07:20:15.096Z,14.70
2017-04-15T07:21:13.219Z,14.80
2017-04-15T07:22:10.946Z,14.80
2017-04-15T07:23:09.607Z,14.80
2017-04-15T07:24:07.702Z,14.70
2017-04-15T07:25:05.907Z,14.80
2017-04-15T07:26:04.071Z,14.90
2017-04-15T07:27:04.872Z,14.80
2017-04-15T07:28:02.951Z,14.90
2017-04-15T07:29:01.106Z,14.90
2017-04-15T07:30:00.107Z,14.90
2017-04-15T07:30:58.385Z,14.80
2017-04-15T07:31:56.792Z,14.80
2017-04-15T07:32:55.028Z,14.80
2017-04-15T07:33:53.145Z,14.70
2017-04-15T07:34:51.205Z,14.70
2017-04-15T07:35:49.068Z,14.70
2017-04-15T07:36:47.260Z,14.80
2017-04-15T07:37:45.431Z,14.80
2017-04-15T07:38:43.195Z,14.80
2017-04-15T07:39:41.387Z,14.90
2017-04-15T07:40:39.879Z,15.00
2017-04-15T07:41:37.995Z,15.10
2017-04-15T07:42:36.135Z,15.10
2017-04-15T07:43:34.235Z,15.10
2017-04-15T07:44:32.302Z,15.10
2017-04-15T07:45:30.532Z,15.10
2017-04-15T07:46:29.342Z,15.20
2017-04-15T07:47:27.121Z,15.20
2017-04-15T07:48:25.228Z,15.20
2017-04-15T07:49:23.390Z,15.20
2017-04-15T07:50:22.085Z,15.30
2017-04-15T07:51:20.171Z,15.30
2017-04-15T07:52:18.386Z,15.40
2017-04-15T07:53:16.510Z,15.40
2017-04-15T07:54:14.663Z,15.50
2017-04-15T07:55:13.533Z,15.50
2017-04-15T07:56:11.645Z,15.50
2017-04-15T07:57:09.853Z,15.60
2017-04-15T07:58:08.019Z,15.60
2017-04-15T07:59:06.250Z,15.70
2017-04-15T08:00:04.699Z,15.80
2017-04-15T08:01:02.499Z,15.80
2017-04-15T08:02:00.603Z,15.80
2017-04-15T08:02:58.608Z,15.80
2017-04-15T08:03:57.823Z,15.70
2017-04-15T08:04:55.945Z,15.60
2017-04-15T08:05:54.109Z,15.50
2017-04-15T08:06:52.213Z,15.40
2017-04-15T08:07:50.356Z,15.40
2017-04-15T08:08:48.451Z,15.40
2017-04-15T08:09:46.644Z,15.50
2017-04-15T08:10:44.812Z,15.60
2017-04-15T08:11:42.984Z,15.70
2017-04-15T08:12:41.968Z,15.60
2017-04-15T08:13:40.175Z,15.60
2017-04-15T08:14:38.272Z,15.70
2017-04-15T08:15:37.204Z,15.70
2017-04-15T08:16:35.279Z,15.80
2017-04-15T08:17:33.511Z,15.80
2017-04-15T08:18:31.635Z,15.80
2017-04-15T08:19:31.058Z,15.70
2017-04-15T08:20:29.203Z,15.60
2017-04-15T08:21:27.371Z,15.50
2017-04-15T08:22:25.514Z,15.50
2017-04-15T08:23:23.631Z,15.50
2017-04-15T08:24:21.765Z,15.50
2017-04-15T08:25:19.555Z,15.50
2017-04-15T08:26:17.725Z,15.50
2017-04-15T08:27:15.902Z,15.60
2017-04-15T08:28:13.998Z,15.70
2017-04-15T08:29:12.120Z,15.70
2017-04-15T08:30:10.311Z,15.70
2017-04-15T08:31:08.451Z,15.80
2017-04-15T08:32:06.523Z,15.80
2017-04-15T08:33:04.315Z,15.90
2017-04-15T08:34:02.395Z,16.10
2017-04-15T08:35:00.533Z,16.30
2017-04-15T08:35:59.207Z,16.50
2017-04-15T08:36:57.317Z,16.60
2017-04-15T08:37:55.099Z,16.60
2017-04-15T08:38:53.317Z,16.70
2017-04-15T08:39:51.983Z,16.80
2017-04-15T08:40:50.319Z,16.80
2017-04-15T08:41:48.454Z,16.80
2017-04-15T08:42:46.589Z,16.70
2017-04-15T08:43:44.735Z,16.60
2017-04-15T08:44:42.900Z,16.50
2017-04-15T08:45:41.064Z,16.40
2017-04-15T08:46:38.854Z,16.40
2017-04-15T08:47:37.030Z,16.40
2017-04-15T08:48:35.194Z,16.50
2017-04-15T08:49:33.643Z,16.40
2017-04-15T08:50:32.154Z,16.40
2017-04-15T08:51:30.342Z,16.50
2017-04-15T08:52:28.481Z,16.70
2017-04-15T08:53:26.614Z,16.80
2017-04-15T08:54:24.771Z,16.90
2017-04-15T08:55:23.246Z,17.00
2017-04-15T08:56:21.791Z,17.10
2017-04-15T08:57:20.294Z,17.20
2017-04-15T08:58:18.432Z,17.30
2017-04-15T08:59:16.866Z,17.40
2017-04-15T09:00:15.475Z,17.50
2017-04-15T09:01:13.576Z,17.40
2017-04-15T09:02:12.595Z,17.40
2017-04-15T09:03:10.668Z,17.50
2017-04-15T09:04:09.738Z,17.40
2017-04-15T09:05:08.990Z,17.30
2017-04-15T09:06:07.436Z,17.20
2017-04-15T09:07:05.597Z,17.20
2017-04-15T09:08:03.707Z,17.30
2017-04-15T09:09:01.895Z,17.30
2017-04-15T09:10:00.047Z,17.20
2017-04-15T09:10:58.326Z,17.20
2017-04-15T09:11:56.427Z,17.20
2017-04-15T09:12:54.903Z,17.20
2017-04-15T09:13:53.496Z,17.20
2017-04-15T09:14:51.588Z,17.20
2017-04-15T09:15:50.514Z,17.30
2017-04-15T09:16:48.630Z,17.20
2017-04-15T09:17:47.257Z,17.20
2017-04-15T09:18:45.334Z,17.20
2017-04-15T09:19:43.446Z,17.10
2017-04-15T09:20:42.066Z,17.10
2017-04-15T09:21:40.207Z,17.00
2017-04-15T09:22:38.319Z,17.00
2017-04-15T09:23:36.391Z,17.10
2017-04-15T09:24:34.533Z,17.10
2017-04-15T09:25:32.761Z,17.10
2017-04-15T09:26:30.875Z,17.00
2017-04-15T09:27:29.039Z,17.10
2017-04-15T09:28:27.200Z,17.10
2017-04-15T09:29:25.307Z,17.10
2017-04-15T09:30:23.175Z,17.10
2017-04-15T09:31:21.292Z,17.10
2017-04-15T09:32:19.453Z,17.10
2017-04-15T09:33:17.224Z,17.00
2017-04-15T09:34:15.369Z,17.00
2017-04-15T09:35:13.667Z,16.90
2017-04-15T09:36:11.783Z,16.80
2017-04-15T09:37:10.005Z,16.80
2017-04-15T09:38:08.142Z,16.70
2017-04-15T09:39:07.676Z,16.70
2017-04-15T09:40:05.573Z,16.70
2017-04-15T09:41:03.740Z,16.80
2017-04-15T09:42:01.889Z,16.80
2017-04-15T09:43:00.044Z,16.70
2017-04-15T09:43:58.205Z,16.70
2017-04-15T09:44:56.296Z,16.60
2017-04-15T09:45:55.406Z,16.60
2017-04-15T09:46:54.775Z,16.70
2017-04-15T09:47:52.866Z,16.70
2017-04-15T09:48:50.978Z,16.80
2017-04-15T09:49:49.122Z,16.80
2017-04-15T09:50:47.285Z,16.80
2017-04-15T09:51:45.393Z,16.80
2017-04-15T09:52:43.536Z,16.80
2017-04-15T09:53:41.236Z,16.80
2017-04-15T09:54:40.309Z,16.80
2017-04-15T09:55:38.567Z,16.90
2017-04-15T09:56:36.651Z,17.00
2017-04-15T09:57:35.030Z,17.10
2017-04-15T09:58:33.268Z,17.20
2017-04-15T09:59:32.878Z,17.20
2017-04-15T10:00:31.615Z,17.20
2017-04-15T10:01:29.772Z,17.30
2017-04-15T10:02:27.876Z,17.40
2017-04-15T10:03:26.000Z,17.50
2017-04-15T10:04:24.296Z,17.60
2017-04-15T10:05:22.778Z,17.60
2017-04-15T10:06:20.929Z,17.60
2017-04-15T10:07:20.684Z,17.60
2017-04-15T10:08:19.513Z,17.60
2017-04-15T10:09:17.674Z,17.60
2017-04-15T10:10:15.953Z,17.60
2017-04-15T10:11:14.025Z,17.70
2017-04-15T10:12:11.792Z,17.60
2017-04-15T10:13:10.012Z,17.80
2017-04-15T10:14:08.142Z,17.90
2017-04-15T10:15:06.804Z,18.00
2017-04-15T10:16:04.505Z,18.00
2017-04-15T10:17:02.603Z,18.20
2017-04-15T10:18:00.823Z,18.20
2017-04-15T10:18:58.997Z,18.20
2017-04-15T10:19:57.133Z,18.10
2017-04-15T10:20:55.793Z,18.10
2017-04-15T10:21:54.027Z,18.20
2017-04-15T10:22:52.335Z,18.30
2017-04-15T10:23:50.512Z,18.20
2017-04-15T10:24:48.594Z,18.30
2017-04-15T10:25:47.119Z,18.40
2017-04-15T10:26:45.515Z,18.40
2017-04-15T10:27:44.652Z,18.60
2017-04-15T10:28:42.879Z,18.70
2017-04-15T10:29:41.507Z,18.80
2017-04-15T10:30:40.643Z,18.90
2017-04-15T10:31:38.803Z,19.00
2017-04-15T10:32:36.971Z,19.00
2017-04-15T10:33:35.067Z,19.00
2017-04-15T10:34:33.413Z,19.00
2017-04-15T10:35:32.221Z,19.10
2017-04-15T10:36:30.401Z,19.20
2017-04-15T10:37:28.510Z,19.00
2017-04-15T10:38:27.075Z,19.00
2017-04-15T10:39:25.183Z,19.00
2017-04-15T10:40:23.379Z,19.00
2017-04-15T10:41:21.484Z,19.00
2017-04-15T10:42:19.279Z,19.00
2017-04-15T10:43:17.414Z,18.80
2017-04-15T10:44:15.588Z,18.90
2017-04-15T10:45:14.166Z,19.00
2017-04-15T10:46:12.902Z,19.10
2017-04-15T10:47:11.087Z,19.20
2017-04-15T10:48:10.100Z,19.30
2017-04-15T10:49:08.271Z,19.50
2017-04-15T10:50:06.407Z,19.40
2017-04-15T10:51:04.631Z,19.30
2017-04-15T10:52:02.671Z,19.40
2017-04-15T10:53:01.071Z,19.50
2017-04-15T10:53:59.211Z,19.60
2017-04-15T10:54:57.395Z,19.50
2017-04-15T10:55:55.953Z,19.40
2017-04-15T10:56:54.039Z,19.30
2017-04-15T10:57:52.138Z,19.20
2017-04-15T10:58:51.319Z,19.30
2017-04-15T10:59:49.531Z,19.20
2017-04-15T11:00:47.775Z,19.20
2017-04-15T11:01:45.612Z,19.20
2017-04-15T11:02:43.816Z,19.10
2017-04-15T11:03:42.920Z,19.10
2017-04-15T11:04:41.023Z,19.00
2017-04-15T11:05:39.493Z,19.00
2017-04-15T11:06:37.565Z,19.00
2017-04-15T11:07:35.637Z,18.80
2017-04-15T11:08:33.455Z,18.80
2017-04-15T11:09:32.038Z,19.00
2017-04-15T11:10:30.195Z,19.30
2017-04-15T11:11:27.962Z,19.30
2017-04-15T11:12:26.096Z,19.70
2017-04-15T11:13:24.175Z,19.90
2017-04-15T11:14:24.247Z,20.00
2017-04-15T11:15:22.779Z,20.10
2017-04-15T11:16:20.873Z,20.10
2017-04-15T11:17:18.944Z,19.90
2017-04-15T11:18:17.023Z,19.90
2017-04-15T11:19:15.135Z,19.70
2017-04-15T11:20:13.300Z,19.50
2017-04-15T11:21:11.475Z,19.30
2017-04-15T11:22:10.534Z,19.20
2017-04-15T11:23:09.203Z,19.00
2017-04-15T11:24:07.363Z,18.80
2017-04-15T11:25:05.532Z,18.70
2017-04-15T11:26:03.254Z,18.70
2017-04-15T11:27:02.572Z,18.60
2017-04-15T11:28:00.668Z,18.50
2017-04-15T11:28:58.745Z,18.40
2017-04-15T11:29:56.843Z,18.40
2017-04-15T11:30:55.010Z,18.30
2017-04-15T11:31:53.114Z,18.20
2017-04-15T11:32:51.519Z,18.10
2017-04-15T11:33:49.673Z,17.90
2017-04-15T11:34:47.732Z,17.90
2017-04-15T11:35:46.260Z,17.90
2017-04-15T11:36:44.403Z,17.90
2017-04-15T11:37:42.448Z,17.90
2017-04-15T11:38:40.603Z,17.80
2017-04-15T11:39:38.748Z,17.70
2017-04-15T11:40:36.590Z,17.60
2017-04-15T11:41:34.692Z,17.70
2017-04-15T11:42:32.780Z,17.70
2017-04-15T11:43:30.896Z,17.70
2017-04-15T11:44:30.071Z,17.70
2017-04-15T11:45:28.276Z,17.80
2017-04-15T11:46:26.443Z,17.90
2017-04-15T11:47:24.590Z,17.80
2017-04-15T11:48:23.697Z,17.90
2017-04-15T11:49:22.861Z,18.00
2017-04-15T11:50:21.020Z,18.10
2017-04-15T11:51:19.091Z,18.10
2017-04-15T11:52:18.109Z,18.20
2017-04-15T11:53:16.271Z,18.20
2017-04-15T11:54:14.116Z,18.20
2017-04-15T11:55:13.144Z,18.30
2017-04-15T11:56:11.255Z,18.40
2017-04-15T11:57:10.177Z,18.40
2017-04-15T11:58:08.275Z,18.40
2017-04-15T11:59:06.679Z,18.30
2017-04-15T12:00:06.739Z,18.30
2017-04-15T12:01:05.562Z,18.40
2017-04-15T12:02:04.667Z,18.40
2017-04-15T12:03:03.579Z,18.50
2017-04-15T12:04:01.747Z,18.60
2017-04-15T12:04:59.941Z,18.60
2017-04-15T12:05:58.524Z,18.60
2017-04-15T12:06:56.715Z,18.60
2017-04-15T12:07:54.979Z,18.50
2017-04-15T12:08:53.113Z,18.50
2017-04-15T12:09:50.904Z,18.50
2017-04-15T12:10:48.729Z,18.40
2017-04-15T12:11:46.856Z,18.40
2017-04-15T12:12:45.291Z,18.20
2017-04-15T12:13:44.545Z,18.10
2017-04-15T12:14:43.352Z,18.00
2017-04-15T12:15:42.051Z,17.90
2017-04-15T12:16:41.154Z,17.90
2017-04-15T12:17:40.095Z,17.90
2017-04-15T12:18:38.249Z,17.80
2017-04-15T12:19:36.804Z,17.60
2017-04-15T12:20:34.959Z,17.50
2017-04-15T12:21:34.189Z,17.60
2017-04-15T12:22:32.697Z,17.60
2017-04-15T12:23:31.056Z,17.60
2017-04-15T12:24:29.205Z,17.70
2017-04-15T12:25:27.381Z,17.80
2017-04-15T12:26:25.471Z,17.70
2017-04-15T12:27:23.572Z,17.60
2017-04-15T12:28:21.716Z,17.50
2017-04-15T12:29:19.932Z,17.50
2017-04-15T12:30:18.567Z,17.50